createdAt,value
2023-05-01T00:02:04.686Z,98960.22
2023-05-01T00:04:33.991Z,98952.03
2023-05-01T00:07:00.635Z,98949.66
2023-05-01T00:09:32.047Z,98951.81
2023-05-01T00:11:58.692Z,98939.16
2023-05-01T00:14:25.490Z,98933.94
2023-05-01T00:16:52.073Z,98933.50
2023-05-01T00:19:18.941Z,98933.81
2023-05-01T00:21:47.766Z,98926.78
2023-05-01T00:24:16.453Z,98921.00
2023-05-01T00:26:43.204Z,98921.09
2023-05-01T00:29:09.794Z,98920.66
2023-05-01T00:31:36.644Z,98913.22
2023-05-01T00:34:04.898Z,98913.50
2023-05-01T00:36:31.869Z,98905.06
2023-05-01T00:38:58.616Z,98904.75
2023-05-01T00:41:25.357Z,98899.47
2023-05-01T00:43:51.974Z,98896.69
2023-05-01T00:46:19.040Z,98901.50
2023-05-01T00:48:45.789Z,98900.72
2023-05-01T00:51:15.070Z,98894.75
2023-05-01T00:53:42.460Z,98893.88
2023-05-01T00:56:11.494Z,98892.00
2023-05-01T00:58:38.970Z,98891.69
2023-05-01T01:01:05.611Z,98887.66
2023-05-01T01:03:32.220Z,98874.81
2023-05-01T01:06:22.232Z,98876.56
2023-05-01T01:09:08.027Z,98884.22
2023-05-01T01:11:45.316Z,98876.84
2023-05-01T01:14:16.918Z,98874.56
2023-05-01T01:16:57.990Z,98877.94
2023-05-01T01:20:06.410Z,98870.41
2023-05-01T01:22:36.524Z,98870.03
2023-05-01T01:25:48.908Z,98868.88
2023-05-01T01:28:42.028Z,98862.50
2023-05-01T01:31:20.983Z,98854.25
2023-05-01T01:34:11.707Z,98851.59
2023-05-01T01:37:20.998Z,98845.75
2023-05-01T01:40:08.119Z,98854.97
2023-05-01T01:42:55.574Z,98849.72
2023-05-01T01:45:31.124Z,98846.88
2023-05-01T01:47:57.962Z,98849.69
2023-05-01T01:50:26.996Z,98837.31
2023-05-01T01:52:54.716Z,98832.22
2023-05-01T01:55:27.515Z,98827.16
2023-05-01T01:57:54.126Z,98829.00
2023-05-01T02:00:22.117Z,98832.59
2023-05-01T02:02:49.773Z,98828.63
2023-05-01T02:05:19.426Z,98820.69
2023-05-01T02:07:49.610Z,98822.00
2023-05-01T02:10:17.822Z,98819.56
2023-05-01T02:12:51.025Z,98817.28
2023-05-01T02:15:20.936Z,98827.47
2023-05-01T02:17:49.538Z,98829.72
2023-05-01T02:20:16.469Z,98818.09
2023-05-01T02:22:47.264Z,98813.94
2023-05-01T02:25:16.464Z,98815.88
2023-05-01T02:27:52.429Z,98806.06
2023-05-01T02:30:19.073Z,98811.38
2023-05-01T02:32:46.008Z,98812.28
2023-05-01T02:35:12.663Z,98814.38
2023-05-01T02:37:39.823Z,98809.09
2023-05-01T02:40:07.854Z,98815.66
2023-05-01T02:42:35.535Z,98801.75
2023-05-01T02:45:06.456Z,98804.94
2023-05-01T02:47:43.786Z,98799.69
2023-05-01T02:50:11.155Z,98798.53
2023-05-01T02:52:38.363Z,98797.00
2023-05-01T02:55:05.634Z,98791.56
2023-05-01T02:57:35.680Z,98796.81
2023-05-01T03:00:02.502Z,98793.66
2023-05-01T03:02:29.211Z,98794.78
2023-05-01T03:04:55.879Z,98792.69
2023-05-01T03:07:22.760Z,98787.63
2023-05-01T03:09:49.380Z,98788.94
2023-05-01T03:12:16.072Z,98776.34
2023-05-01T03:14:42.671Z,98782.19
2023-05-01T03:17:09.267Z,98781.06
2023-05-01T03:19:36.937Z,98774.44
2023-05-01T03:22:03.789Z,98777.28
2023-05-01T03:24:30.697Z,98780.50
2023-05-01T03:26:57.260Z,98770.34
2023-05-01T03:29:23.867Z,98775.22
2023-05-01T03:31:50.489Z,98772.56
2023-05-01T03:34:17.143Z,98772.56
2023-05-01T03:36:43.700Z,98777.66
2023-05-01T03:39:10.283Z,98769.22
2023-05-01T03:41:36.856Z,98775.94
2023-05-01T03:44:03.745Z,98768.44
2023-05-01T03:46:30.480Z,98772.19
2023-05-01T03:48:59.594Z,98761.25
2023-05-01T03:51:28.915Z,98757.69
2023-05-01T03:53:58.750Z,98758.81
2023-05-01T03:56:27.320Z,98766.69
2023-05-01T03:58:54.065Z,98761.63
2023-05-01T04:01:20.752Z,98763.47
2023-05-01T04:03:48.109Z,98758.22
2023-05-01T04:06:16.303Z,98761.59
2023-05-01T04:08:43.453Z,98754.44
2023-05-01T04:11:10.853Z,98753.69
2023-05-01T04:13:37.489Z,98763.28
2023-05-01T04:16:04.485Z,98755.59
2023-05-01T04:18:31.225Z,98756.34
2023-05-01T04:20:57.983Z,98763.06
2023-05-01T04:23:24.895Z,98761.56
2023-05-01T04:25:51.514Z,98760.75
2023-05-01T04:28:18.079Z,98750.25
2023-05-01T04:30:44.720Z,98759.66
2023-05-01T04:33:11.551Z,98766.28
2023-05-01T04:35:39.431Z,98754.69
2023-05-01T04:38:06.980Z,98757.00
2023-05-01T04:40:34.057Z,98764.09
2023-05-01T04:43:00.769Z,98761.06
2023-05-01T04:45:27.368Z,98755.06
2023-05-01T04:47:53.985Z,98764.47
2023-05-01T04:50:20.706Z,98759.53
2023-05-01T04:52:47.331Z,98752.38
2023-05-01T04:55:13.926Z,98749.44
2023-05-01T04:57:40.614Z,98757.28
2023-05-01T05:00:07.991Z,98755.78
2023-05-01T05:02:34.701Z,98755.34
2023-05-01T05:05:08.001Z,98754.03
2023-05-01T05:07:34.565Z,98751.72
2023-05-01T05:10:01.159Z,98757.09
2023-05-01T05:12:27.738Z,98758.53
2023-05-01T05:14:54.335Z,98758.31
2023-05-01T05:17:20.939Z,98751.69
2023-05-01T05:19:47.682Z,98759.16
2023-05-01T05:22:14.350Z,98752.00
2023-05-01T05:24:40.917Z,98759.53
2023-05-01T05:27:08.279Z,98753.66
2023-05-01T05:29:34.946Z,98753.66
2023-05-01T05:32:01.974Z,98755.84
2023-05-01T05:34:28.695Z,98756.28
2023-05-01T05:36:55.328Z,98753.03
2023-05-01T05:39:23.577Z,98751.50
2023-05-01T05:41:50.677Z,98749.66
2023-05-01T05:44:17.260Z,98749.75
2023-05-01T05:46:43.886Z,98753.13
2023-05-01T05:49:10.681Z,98755.38
2023-05-01T05:51:37.269Z,98748.31
2023-05-01T05:54:03.845Z,98749.94
2023-05-01T05:56:30.694Z,98749.16
2023-05-01T05:58:58.372Z,98749.94
2023-05-01T06:01:24.970Z,98750.41
2023-05-01T06:03:51.614Z,98752.00
2023-05-01T06:06:18.335Z,98756.53
2023-05-01T06:08:46.165Z,98747.38
2023-05-01T06:11:12.763Z,98750.00
2023-05-01T06:13:39.323Z,98752.81
2023-05-01T06:16:07.301Z,98742.38
2023-05-01T06:18:34.123Z,98751.00
2023-05-01T06:21:00.816Z,98737.91
2023-05-01T06:23:27.382Z,98741.25
2023-05-01T06:25:54.038Z,98738.47
2023-05-01T06:28:21.371Z,98744.31
2023-05-01T06:30:48.228Z,98725.69
2023-05-01T06:33:14.962Z,98730.97
2023-05-01T06:35:41.625Z,98735.59
2023-05-01T06:38:08.384Z,98734.34
2023-05-01T06:40:35.133Z,98738.66
2023-05-01T06:43:03.201Z,98725.00
2023-05-01T06:45:29.809Z,98729.75
2023-05-01T06:47:56.503Z,98732.47
2023-05-01T06:50:23.183Z,98736.91
2023-05-01T06:52:49.753Z,98738.34
2023-05-01T06:55:16.475Z,98729.78
2023-05-01T06:57:43.146Z,98732.19
2023-05-01T07:00:10.775Z,98738.03
2023-05-01T07:02:38.115Z,98742.06
2023-05-01T07:05:05.505Z,98738.13
2023-05-01T07:07:32.248Z,98739.13
2023-05-01T07:09:59.482Z,98734.16
2023-05-01T07:12:26.668Z,98720.41
2023-05-01T07:14:53.305Z,98726.97
2023-05-01T07:17:20.009Z,98732.97
2023-05-01T07:19:46.594Z,98719.88
2023-05-01T07:22:13.194Z,98723.25
2023-05-01T07:24:39.744Z,98713.19
2023-05-01T07:27:06.600Z,98714.22
2023-05-01T07:29:33.226Z,98720.97
2023-05-01T07:32:01.228Z,98719.84
2023-05-01T07:34:27.867Z,98727.38
2023-05-01T07:36:54.786Z,98714.69
2023-05-01T07:39:21.968Z,98719.69
2023-05-01T07:41:48.606Z,98709.56
2023-05-01T07:44:15.361Z,98703.13
2023-05-01T07:46:41.918Z,98718.75
2023-05-01T07:49:08.749Z,98721.38
2023-05-01T07:51:35.646Z,98710.22
2023-05-01T07:54:04.133Z,98711.81
2023-05-01T07:56:31.380Z,98711.47
2023-05-01T07:58:58.011Z,98708.31
2023-05-01T08:01:25.406Z,98710.03
2023-05-01T08:03:52.092Z,98715.69
2023-05-01T08:06:18.808Z,98715.16
2023-05-01T08:08:45.529Z,98716.53
2023-05-01T08:11:12.134Z,98710.97
2023-05-01T08:13:38.737Z,98708.50
2023-05-01T08:16:05.594Z,98712.03
2023-05-01T08:18:32.302Z,98703.34
2023-05-01T08:20:58.958Z,98704.13
2023-05-01T08:23:25.609Z,98718.94
2023-05-01T08:25:52.575Z,98706.72
2023-05-01T08:28:22.764Z,98706.16
2023-05-01T08:30:49.630Z,98710.69
2023-05-01T08:33:16.853Z,98712.97
2023-05-01T08:35:43.536Z,98709.56
2023-05-01T08:38:11.607Z,98709.84
2023-05-01T08:40:40.928Z,98706.97
2023-05-01T08:43:07.654Z,98708.41
2023-05-01T08:45:37.536Z,98697.28
2023-05-01T08:48:07.102Z,98696.66
2023-05-01T08:50:40.873Z,98703.97
2023-05-01T08:53:12.157Z,98705.22
2023-05-01T08:55:39.680Z,98702.34
2023-05-01T08:58:07.715Z,98700.19
2023-05-01T09:00:36.978Z,98694.16
2023-05-01T09:03:05.042Z,98689.00
2023-05-01T09:05:33.216Z,98694.91
2023-05-01T09:08:00.727Z,98689.94
2023-05-01T09:10:27.836Z,98677.00
2023-05-01T09:13:01.491Z,98679.69
2023-05-01T09:15:29.929Z,98678.59
2023-05-01T09:18:02.299Z,98671.25
2023-05-01T09:20:31.601Z,98676.75
2023-05-01T09:22:58.882Z,98681.63
2023-05-01T09:25:25.486Z,98676.41
2023-05-01T09:27:52.374Z,98685.31
2023-05-01T09:30:34.949Z,98681.31
2023-05-01T09:33:19.763Z,98689.75
2023-05-01T09:35:55.851Z,98675.38
2023-05-01T09:38:25.395Z,98675.44
2023-05-01T09:40:57.942Z,98667.91
2023-05-01T09:43:26.892Z,98663.03
2023-05-01T09:46:09.230Z,98667.25
2023-05-01T09:48:37.283Z,98667.16
2023-05-01T09:51:21.904Z,98666.84
2023-05-01T09:53:49.200Z,98664.59
2023-05-01T09:56:15.947Z,98670.94
2023-05-01T09:58:42.694Z,98668.97
2023-05-01T10:01:09.305Z,98661.41
2023-05-01T10:03:36.304Z,98662.53
2023-05-01T10:06:04.125Z,98649.44
2023-05-01T10:08:48.797Z,98658.81
2023-05-01T10:11:16.042Z,98654.41
2023-05-01T10:13:42.801Z,98652.84
2023-05-01T10:16:29.827Z,98652.03
2023-05-01T10:18:58.452Z,98645.03
2023-05-01T10:21:25.886Z,98658.84
2023-05-01T10:23:53.368Z,98651.88
2023-05-01T10:26:20.687Z,98654.91
2023-05-01T10:28:49.278Z,98641.38
2023-05-01T10:31:16.915Z,98639.84
2023-05-01T10:33:45.940Z,98638.47
2023-05-01T10:36:25.004Z,98632.22
2023-05-01T10:38:52.064Z,98632.72
2023-05-01T10:41:57.462Z,98641.22
2023-05-01T10:44:26.824Z,98637.19
2023-05-01T10:46:54.660Z,98624.38
2023-05-01T10:49:22.007Z,98629.47
2023-05-01T10:51:58.656Z,98621.47
2023-05-01T10:54:31.287Z,98617.94
2023-05-01T10:57:02.760Z,98611.50
2023-05-01T11:00:01.467Z,98612.94
2023-05-01T11:02:28.164Z,98608.16
2023-05-01T11:04:56.203Z,98606.34
2023-05-01T11:07:23.914Z,98606.94
2023-05-01T11:09:57.479Z,98592.31
2023-05-01T11:12:46.255Z,98588.66
2023-05-01T11:15:25.561Z,98594.41
2023-05-01T11:17:52.569Z,98579.72
2023-05-01T11:20:25.212Z,98582.88
2023-05-01T11:22:54.334Z,98586.75
2023-05-01T11:25:23.597Z,98581.19
2023-05-01T11:27:53.272Z,98581.38
2023-05-01T11:30:20.750Z,98577.06
2023-05-01T11:32:51.461Z,98578.06
2023-05-01T11:35:24.102Z,98581.13
2023-05-01T11:37:51.320Z,98578.56
2023-05-01T11:40:26.295Z,98574.88
2023-05-01T11:43:13.488Z,98577.63
2023-05-01T11:45:40.090Z,98582.44
2023-05-01T11:48:18.002Z,98581.63
2023-05-01T11:50:44.966Z,98573.06
2023-05-01T11:53:15.485Z,98577.81
2023-05-01T11:55:42.168Z,98583.38
2023-05-01T11:58:08.947Z,98577.94
2023-05-01T12:00:42.476Z,98570.16
2023-05-01T12:03:14.544Z,98582.81
2023-05-01T12:05:44.303Z,98578.28
2023-05-01T12:08:13.412Z,98576.78
2023-05-01T12:10:43.300Z,98580.97
2023-05-01T12:13:12.754Z,98584.19
2023-05-01T12:15:44.922Z,98581.88
2023-05-01T12:18:14.057Z,98574.22
2023-05-01T12:20:52.550Z,98590.34
2023-05-01T12:23:32.476Z,98597.25
2023-05-01T12:25:59.260Z,98584.66
2023-05-01T12:28:27.589Z,98593.19
2023-05-01T12:31:04.692Z,98597.44
2023-05-01T12:33:32.096Z,98600.78
2023-05-01T12:36:11.463Z,98590.88
2023-05-01T12:38:38.163Z,98595.75
2023-05-01T12:41:07.107Z,98599.91
2023-05-01T12:43:36.772Z,98595.59
2023-05-01T12:46:05.589Z,98595.19
2023-05-01T12:48:34.037Z,98603.75
2023-05-01T12:51:00.992Z,98593.72
2023-05-01T12:53:29.006Z,98599.81
2023-05-01T12:55:58.337Z,98585.50
2023-05-01T12:58:36.284Z,98587.34
2023-05-01T13:01:03.068Z,98587.53
2023-05-01T13:03:31.315Z,98579.72
2023-05-01T13:06:03.827Z,98579.53
2023-05-01T13:08:41.646Z,98577.31
2023-05-01T13:11:12.946Z,98580.41
2023-05-01T13:13:40.501Z,98579.00
2023-05-01T13:16:12.252Z,98585.38
2023-05-01T13:18:48.809Z,98576.34
2023-05-01T13:21:24.047Z,98573.53
2023-05-01T13:23:57.644Z,98571.72
2023-05-01T13:26:31.329Z,98572.97
2023-05-01T13:28:59.735Z,98577.47
2023-05-01T13:31:26.738Z,98567.00
2023-05-01T13:33:55.074Z,98561.44
2023-05-01T13:36:26.057Z,98564.06
2023-05-01T13:38:56.642Z,98564.75
2023-05-01T13:41:25.806Z,98566.91
2023-05-01T13:43:55.946Z,98558.31
2023-05-01T13:46:24.465Z,98561.19
2023-05-01T13:48:51.510Z,98573.81
2023-05-01T13:51:26.238Z,98567.41
2023-05-01T13:53:53.256Z,98566.25
2023-05-01T13:56:27.644Z,98557.16
2023-05-01T13:58:54.231Z,98569.06
2023-05-01T14:01:22.472Z,98561.47
2023-05-01T14:03:49.871Z,98561.63
2023-05-01T14:06:20.201Z,98560.59
2023-05-01T14:08:48.711Z,98555.59
2023-05-01T14:11:15.783Z,98559.19
2023-05-01T14:13:44.412Z,98556.75
2023-05-01T14:16:20.784Z,98563.41
2023-05-01T14:18:48.302Z,98563.16
2023-05-01T14:21:16.968Z,98566.00
2023-05-01T14:23:44.146Z,98559.13
2023-05-01T14:26:17.387Z,98552.97
2023-05-01T14:28:46.103Z,98558.50
2023-05-01T14:31:27.482Z,98560.00
2023-05-01T14:34:00.239Z,98562.50
2023-05-01T14:36:28.631Z,98560.91
2023-05-01T14:39:00.581Z,98558.06
2023-05-01T14:41:27.765Z,98560.00
2023-05-01T14:43:54.845Z,98561.72
2023-05-01T14:46:52.118Z,98558.03
2023-05-01T14:49:22.268Z,98553.91
2023-05-01T14:51:49.319Z,98562.63
2023-05-01T14:54:16.449Z,98559.47
2023-05-01T14:56:44.161Z,98565.22
2023-05-01T14:59:10.986Z,98572.69
2023-05-01T15:01:37.950Z,98571.47
2023-05-01T15:04:07.324Z,98567.25
2023-05-01T15:06:34.526Z,98561.81
2023-05-01T15:09:01.326Z,98570.03
2023-05-01T15:11:28.019Z,98565.03
2023-05-01T15:13:54.691Z,98558.56
2023-05-01T15:16:21.306Z,98563.75
2023-05-01T15:18:47.965Z,98559.94
2023-05-01T15:21:14.557Z,98559.03
2023-05-01T15:23:44.937Z,98563.91
2023-05-01T15:26:11.846Z,98555.22
2023-05-01T15:28:38.571Z,98551.34
2023-05-01T15:31:05.786Z,98553.38
2023-05-01T15:33:34.072Z,98554.59
2023-05-01T15:36:00.862Z,98553.53
2023-05-01T15:38:28.186Z,98553.72
2023-05-01T15:40:54.958Z,98556.06
2023-05-01T15:43:23.150Z,98556.50
2023-05-01T15:45:51.409Z,98569.09
2023-05-01T15:48:18.101Z,98558.47
2023-05-01T15:50:48.818Z,98559.31
2023-05-01T15:53:16.931Z,98558.34
2023-05-01T15:55:43.576Z,98572.25
2023-05-01T15:58:10.249Z,98558.94
2023-05-01T16:00:39.347Z,98559.47
2023-05-01T16:03:07.783Z,98562.81
2023-05-01T16:05:37.127Z,98564.84
2023-05-01T16:08:06.340Z,98555.47
2023-05-01T16:10:36.906Z,98558.16
2023-05-01T16:13:06.705Z,98563.00
2023-05-01T16:15:34.037Z,98561.50
2023-05-01T16:18:03.719Z,98556.50
2023-05-01T16:20:39.381Z,98561.44
2023-05-01T16:23:06.103Z,98564.09
2023-05-01T16:25:32.680Z,98565.13
2023-05-01T16:27:59.466Z,98568.19
2023-05-01T16:30:27.747Z,98567.88
2023-05-01T16:32:54.408Z,98563.00
2023-05-01T16:35:27.552Z,98566.06
2023-05-01T16:37:55.288Z,98561.72
2023-05-01T16:40:22.834Z,98561.81
2023-05-01T16:42:54.007Z,98570.59
2023-05-01T16:45:21.607Z,98568.53
2023-05-01T16:47:48.354Z,98566.97
2023-05-01T16:50:16.246Z,98572.50
2023-05-01T16:52:42.798Z,98571.34
2023-05-01T16:55:09.957Z,98583.66
2023-05-01T16:57:36.607Z,98595.00
2023-05-01T17:00:05.001Z,98597.59
2023-05-01T17:02:32.549Z,98590.75
2023-05-01T17:04:59.289Z,98595.66
2023-05-01T17:07:25.919Z,98600.22
2023-05-01T17:09:54.134Z,98595.34
2023-05-01T17:12:20.849Z,98595.00
2023-05-01T17:14:47.484Z,98595.09
2023-05-01T17:17:17.400Z,98588.00
2023-05-01T17:19:43.972Z,98603.13
2023-05-01T17:22:10.593Z,98601.25
2023-05-01T17:24:37.179Z,98602.94
2023-05-01T17:27:03.861Z,98601.78
2023-05-01T17:29:30.584Z,98601.75
2023-05-01T17:31:57.385Z,98601.63
2023-05-01T17:34:25.044Z,98604.06
2023-05-01T17:36:51.687Z,98601.19
2023-05-01T17:39:21.500Z,98599.69
2023-05-01T17:41:51.054Z,98599.91
2023-05-01T17:44:17.604Z,98607.78
2023-05-01T17:46:44.272Z,98605.69
2023-05-01T17:49:10.876Z,98612.50
2023-05-01T17:51:37.451Z,98609.13
2023-05-01T17:54:04.035Z,98613.56
2023-05-01T17:56:30.636Z,98615.59
2023-05-01T17:58:57.251Z,98617.19
2023-05-01T18:01:24.073Z,98625.66
2023-05-01T18:03:51.099Z,98627.78
2023-05-01T18:06:17.876Z,98629.72
2023-05-01T18:08:44.483Z,98632.38
2023-05-01T18:11:11.160Z,98636.47
2023-05-01T18:13:39.472Z,98630.97
2023-05-01T18:16:06.299Z,98627.81
2023-05-01T18:18:32.899Z,98630.88
2023-05-01T18:20:59.552Z,98641.81
2023-05-01T18:23:26.199Z,98638.38
2023-05-01T18:25:54.707Z,98643.34
2023-05-01T18:28:21.859Z,98643.78
2023-05-01T18:30:51.886Z,98635.78
2023-05-01T18:33:18.716Z,98641.91
2023-05-01T18:35:45.500Z,98647.19
2023-05-01T18:38:12.205Z,98651.22
2023-05-01T18:40:39.219Z,98655.38
2023-05-01T18:43:06.857Z,98651.44
2023-05-01T18:45:33.697Z,98659.16
2023-05-01T18:48:00.862Z,98661.94
2023-05-01T18:50:27.650Z,98663.00
2023-05-01T18:52:54.265Z,98654.88
2023-05-01T18:55:20.927Z,98666.41
2023-05-01T18:57:48.361Z,98665.25
2023-05-01T19:00:17.266Z,98675.19
2023-05-01T19:02:50.965Z,98676.09
2023-05-01T19:05:17.753Z,98676.22
2023-05-01T19:07:44.930Z,98684.22
2023-05-01T19:10:11.638Z,98674.78
2023-05-01T19:12:39.211Z,98688.53
2023-05-01T19:15:06.459Z,98693.91
2023-05-01T19:17:33.871Z,98691.47
2023-05-01T19:20:00.882Z,98704.88
2023-05-01T19:22:27.763Z,98706.38
2023-05-01T19:24:56.634Z,98708.13
2023-05-01T19:27:25.324Z,98718.00
2023-05-01T19:29:53.651Z,98722.63
2023-05-01T19:32:20.762Z,98726.13
2023-05-01T19:34:47.514Z,98731.56
2023-05-01T19:37:14.110Z,98736.94
2023-05-01T19:39:40.698Z,98737.22
2023-05-01T19:42:07.322Z,98728.00
2023-05-01T19:44:33.938Z,98740.28
2023-05-01T19:47:00.657Z,98744.66
2023-05-01T19:49:27.693Z,98740.53
2023-05-01T19:51:54.431Z,98739.69
2023-05-01T19:54:22.253Z,98752.22
2023-05-01T19:56:51.430Z,98750.34
2023-05-01T19:59:18.824Z,98748.00
2023-05-01T20:01:45.781Z,98754.09
2023-05-01T20:04:12.904Z,98749.13
2023-05-01T20:06:39.604Z,98759.81
2023-05-01T20:09:06.349Z,98760.81
2023-05-01T20:11:33.339Z,98767.47
2023-05-01T20:14:00.682Z,98764.75
2023-05-01T20:16:28.315Z,98767.22
2023-05-01T20:18:54.917Z,98764.91
2023-05-01T20:21:21.588Z,98767.38
2023-05-01T20:23:49.554Z,98761.78
2023-05-01T20:26:17.514Z,98778.38
2023-05-01T20:28:44.448Z,98784.31
2023-05-01T20:31:12.236Z,98779.16
2023-05-01T20:33:39.105Z,98783.94
2023-05-01T20:36:06.829Z,98795.59
2023-05-01T20:38:33.410Z,98792.59
2023-05-01T20:41:00.058Z,98788.19
2023-05-01T20:43:26.642Z,98800.59
2023-05-01T20:45:53.323Z,98799.09
2023-05-01T20:48:19.981Z,98804.00
2023-05-01T20:50:48.121Z,98802.63
2023-05-01T20:53:14.739Z,98802.44
2023-05-01T20:55:41.380Z,98804.97
2023-05-01T20:58:08.165Z,98809.34
2023-05-01T21:00:34.779Z,98813.75
2023-05-01T21:03:01.604Z,98805.16
2023-05-01T21:05:28.422Z,98811.19
2023-05-01T21:07:57.380Z,98814.44
2023-05-01T21:10:24.354Z,98813.22
2023-05-01T21:12:51.008Z,98807.63
2023-05-01T21:15:17.759Z,98818.09
2023-05-01T21:17:44.445Z,98826.09
2023-05-01T21:20:18.851Z,98812.47
2023-05-01T21:22:48.709Z,98817.16
2023-05-01T21:25:19.758Z,98823.13
2023-05-01T21:27:46.338Z,98821.44
2023-05-01T21:30:15.865Z,98817.34
2023-05-01T21:32:42.871Z,98822.97
2023-05-01T21:35:11.462Z,98821.56
2023-05-01T21:37:39.299Z,98820.13
2023-05-01T21:40:07.132Z,98830.44
2023-05-01T21:42:39.018Z,98836.53
2023-05-01T21:45:08.225Z,98832.03
2023-05-01T21:47:39.160Z,98846.69
2023-05-01T21:50:08.202Z,98842.78
2023-05-01T21:52:35.352Z,98845.41
2023-05-01T21:55:09.298Z,98849.13
2023-05-01T21:57:38.759Z,98840.50
2023-05-01T22:00:10.622Z,98841.47
2023-05-01T22:02:46.485Z,98844.78
2023-05-01T22:05:15.231Z,98840.63
2023-05-01T22:07:43.816Z,98852.88
2023-05-01T22:10:13.384Z,98847.91
2023-05-01T22:12:41.449Z,98851.78
2023-05-01T22:15:10.235Z,98857.34
2023-05-01T22:17:38.179Z,98851.44
2023-05-01T22:20:07.103Z,98849.31
2023-05-01T22:22:35.213Z,98856.53
2023-05-01T22:25:02.812Z,98850.94
2023-05-01T22:27:29.714Z,98855.03
2023-05-01T22:29:56.442Z,98866.03
2023-05-01T22:32:23.229Z,98863.47
2023-05-01T22:34:52.315Z,98874.63
2023-05-01T22:37:19.653Z,98873.50
2023-05-01T22:39:46.356Z,98876.91
2023-05-01T22:42:13.162Z,98870.09
2023-05-01T22:44:39.786Z,98872.91
2023-05-01T22:47:07.035Z,98874.72
2023-05-01T22:49:33.682Z,98877.97
2023-05-01T22:52:00.310Z,98882.22
2023-05-01T22:54:26.878Z,98872.91
2023-05-01T22:56:53.576Z,98878.66
2023-05-01T22:59:25.786Z,98882.88
2023-05-01T23:01:52.431Z,98877.16
2023-05-01T23:04:19.453Z,98879.41
2023-05-01T23:06:46.240Z,98875.47
2023-05-01T23:09:12.915Z,98878.09
2023-05-01T23:11:41.236Z,98880.41
2023-05-01T23:14:07.869Z,98880.00
2023-05-01T23:16:41.665Z,98880.34
2023-05-01T23:19:24.644Z,98877.91
2023-05-01T23:22:09.487Z,98885.13
2023-05-01T23:24:49.606Z,98886.06
2023-05-01T23:27:19.118Z,98891.50
2023-05-01T23:29:59.503Z,98892.81
2023-05-01T23:32:31.124Z,98891.13
2023-05-01T23:35:07.519Z,98894.13
2023-05-01T23:37:34.098Z,98891.66
2023-05-01T23:40:01.742Z,98890.19
2023-05-01T23:42:28.660Z,98886.81
2023-05-01T23:44:56.408Z,98880.91
2023-05-01T23:47:23.251Z,98895.00
2023-05-01T23:49:50.448Z,98891.41
2023-05-01T23:52:17.302Z,98888.69
2023-05-01T23:54:43.877Z,98891.44
2023-05-01T23:57:10.654Z,98882.00
2023-05-01T23:59:37.347Z,98876.44
